createdAt,value
2023-04-07T00:00:34.717Z,4.00
2023-04-07T00:01:34.685Z,3.50
2023-04-07T00:02:34.650Z,3.70
2023-04-07T00:03:34.730Z,3.60
2023-04-07T00:04:34.581Z,3.10
2023-04-07T00:05:34.546Z,3.30
2023-04-07T00:06:34.573Z,3.60
2023-04-07T00:07:42.024Z,3.60
2023-04-07T00:08:35.485Z,3.50
2023-04-07T00:09:34.488Z,3.50
2023-04-07T00:10:34.495Z,3.90
2023-04-07T00:11:34.718Z,3.50
2023-04-07T00:12:34.518Z,3.60
2023-04-07T00:13:34.547Z,3.60
2023-04-07T00:14:34.499Z,3.70
2023-04-07T00:15:34.452Z,3.10
2023-04-07T00:16:34.400Z,3.40
2023-04-07T00:17:34.467Z,3.20
2023-04-07T00:18:34.418Z,3.70
2023-04-07T00:19:34.397Z,3.70
2023-04-07T00:20:34.452Z,3.20
2023-04-07T00:21:34.394Z,3.50
2023-04-07T00:22:34.382Z,3.50
2023-04-07T00:23:34.357Z,3.50
2023-04-07T00:24:34.938Z,3.40
2023-04-07T00:25:34.365Z,3.40
2023-04-07T00:26:34.335Z,3.30
2023-04-07T00:27:34.519Z,3.30
2023-04-07T00:28:34.281Z,3.50
2023-04-07T00:29:34.308Z,3.30
2023-04-07T00:30:34.272Z,3.30
2023-04-07T00:31:34.293Z,3.00
2023-04-07T00:32:35.346Z,3.70
2023-04-07T00:33:34.252Z,3.50
2023-04-07T00:34:34.228Z,3.30
2023-04-07T00:35:34.304Z,3.10
2023-04-07T00:36:34.175Z,3.50
2023-04-07T00:37:34.227Z,3.40
2023-04-07T00:38:34.160Z,3.20
2023-04-07T00:39:34.223Z,3.30
2023-04-07T00:40:34.304Z,3.20
2023-04-07T00:41:34.154Z,3.30
2023-04-07T00:42:34.173Z,3.10
2023-04-07T00:43:34.141Z,3.80
2023-04-07T00:44:34.116Z,3.60
2023-04-07T00:45:34.154Z,3.90
2023-04-07T00:46:34.128Z,3.90
2023-04-07T00:47:34.472Z,3.70
2023-04-07T00:48:34.348Z,3.50
2023-04-07T00:49:34.146Z,3.80
2023-04-07T00:50:34.026Z,3.90
2023-04-07T00:51:34.048Z,3.80
2023-04-07T00:52:34.076Z,3.60
2023-04-07T00:53:34.007Z,3.70
2023-04-07T00:54:33.982Z,3.70
2023-04-07T00:55:34.059Z,3.90
2023-04-07T00:56:33.959Z,3.60
2023-04-07T00:57:34.011Z,3.90
2023-04-07T00:58:33.974Z,3.60
2023-04-07T00:59:33.972Z,3.60
2023-04-07T01:00:33.917Z,4.40
2023-04-07T01:01:34.065Z,3.40
2023-04-07T01:02:34.176Z,3.70
2023-04-07T01:03:34.529Z,3.80
2023-04-07T01:04:34.030Z,4.20
2023-04-07T01:05:33.888Z,4.10
2023-04-07T01:06:33.845Z,4.00
2023-04-07T01:07:33.902Z,4.00
2023-04-07T01:08:34.081Z,3.80
2023-04-07T01:09:33.870Z,4.00
2023-04-07T01:10:33.913Z,4.30
2023-04-07T01:11:33.839Z,4.10
2023-04-07T01:12:33.841Z,4.30
2023-04-07T01:13:34.010Z,4.00
2023-04-07T01:14:33.850Z,4.60
2023-04-07T01:15:33.782Z,4.10
2023-04-07T01:16:33.793Z,3.90
2023-04-07T01:17:33.777Z,3.80
2023-04-07T01:18:33.751Z,3.50
2023-04-07T01:19:33.754Z,4.00
2023-04-07T01:20:33.706Z,4.70
2023-04-07T01:21:34.173Z,4.20
2023-04-07T01:22:33.669Z,4.60
2023-04-07T01:23:33.714Z,3.50
2023-04-07T01:24:33.712Z,4.80
2023-04-07T01:25:33.660Z,4.40
2023-04-07T01:26:33.719Z,4.60
2023-04-07T01:27:33.702Z,4.50
2023-04-07T01:28:33.673Z,4.10
2023-04-07T01:29:33.700Z,4.00
2023-04-07T01:30:33.617Z,4.20
2023-04-07T01:31:33.656Z,3.70
2023-04-07T01:32:33.655Z,4.00
2023-04-07T01:33:41.129Z,4.50
2023-04-07T01:34:33.521Z,4.30
2023-04-07T01:35:33.535Z,4.10
2023-04-07T01:36:33.532Z,5.00
2023-04-07T01:37:33.527Z,4.20
2023-04-07T01:38:33.529Z,4.30
2023-04-07T01:39:33.492Z,4.60
2023-04-07T01:40:33.547Z,4.50
2023-04-07T01:41:33.479Z,4.50
2023-04-07T01:42:34.078Z,4.50
2023-04-07T01:43:33.484Z,4.70
2023-04-07T01:44:33.434Z,4.60
2023-04-07T01:45:33.448Z,4.70
2023-04-07T01:46:33.461Z,4.90
2023-04-07T01:47:33.505Z,4.50
2023-04-07T01:48:33.389Z,4.90
2023-04-07T01:49:34.396Z,5.10
2023-04-07T01:50:33.351Z,5.30
2023-04-07T01:51:33.361Z,4.90
2023-04-07T01:52:33.422Z,4.90
2023-04-07T01:53:33.368Z,5.30
2023-04-07T01:54:33.307Z,5.00
2023-04-07T01:55:33.406Z,5.10
2023-04-07T01:56:33.285Z,4.70
2023-04-07T01:57:33.331Z,4.80
2023-04-07T01:58:33.288Z,4.80
2023-04-07T01:59:33.281Z,5.10
2023-04-07T02:00:33.245Z,5.30
2023-04-07T02:01:33.369Z,4.80
2023-04-07T02:02:34.287Z,5.20
2023-04-07T02:03:34.014Z,4.80
2023-04-07T02:04:33.218Z,5.10
2023-04-07T02:05:33.214Z,5.30
2023-04-07T02:06:33.310Z,5.40
2023-04-07T02:07:33.181Z,5.00
2023-04-07T02:08:33.245Z,5.70
2023-04-07T02:09:33.226Z,5.30
2023-04-07T02:10:33.248Z,5.20
2023-04-07T02:11:33.185Z,5.00
2023-04-07T02:12:33.141Z,5.40
2023-04-07T02:13:33.122Z,5.40
2023-04-07T02:14:33.160Z,5.30
2023-04-07T02:15:33.069Z,5.10
2023-04-07T02:16:33.106Z,5.10
2023-04-07T02:17:33.094Z,6.10
2023-04-07T02:18:33.077Z,5.50
2023-04-07T02:19:33.243Z,5.50
2023-04-07T02:20:33.070Z,5.60
2023-04-07T02:21:32.996Z,5.50
2023-04-07T02:22:33.024Z,5.50
2023-04-07T02:23:32.994Z,5.60
2023-04-07T02:24:33.080Z,5.90
2023-04-07T02:25:32.971Z,5.60
2023-04-07T02:26:34.874Z,4.90
2023-04-07T02:27:32.982Z,5.60
2023-04-07T02:28:32.945Z,5.50
2023-04-07T02:29:33.372Z,5.50
2023-04-07T02:30:33.020Z,5.30
2023-04-07T02:31:33.014Z,5.30
2023-04-07T02:32:32.949Z,5.40
2023-04-07T02:33:32.916Z,5.10
2023-04-07T02:34:32.880Z,5.50
2023-04-07T02:35:32.847Z,5.50
2023-04-07T02:36:32.991Z,5.70
2023-04-07T02:37:32.815Z,5.60
2023-04-07T02:38:32.853Z,5.80
2023-04-07T02:39:32.831Z,6.00
2023-04-07T02:40:32.840Z,5.60
2023-04-07T02:41:32.788Z,5.30
2023-04-07T02:42:32.799Z,5.50
2023-04-07T02:43:32.770Z,5.60
2023-04-07T02:44:32.805Z,5.40
2023-04-07T02:45:32.752Z,5.40
2023-04-07T02:46:32.786Z,5.30
2023-04-07T02:47:32.751Z,5.70
2023-04-07T02:48:32.741Z,5.80
2023-04-07T02:49:32.697Z,5.60
2023-04-07T02:50:33.545Z,5.40
2023-04-07T02:51:32.710Z,5.10
2023-04-07T02:52:32.680Z,5.90
2023-04-07T02:53:32.675Z,5.60
2023-04-07T02:54:32.691Z,5.40
2023-04-07T02:55:32.705Z,5.60
2023-04-07T02:56:32.723Z,5.50
2023-04-07T02:57:32.601Z,5.40
2023-04-07T02:58:32.626Z,5.60
2023-04-07T02:59:32.577Z,5.70
2023-04-07T03:00:32.587Z,5.70
2023-04-07T03:01:32.634Z,6.10
2023-04-07T03:02:32.762Z,5.70
2023-04-07T03:03:32.591Z,6.10
2023-04-07T03:04:32.585Z,5.70
2023-04-07T03:05:32.548Z,6.20
2023-04-07T03:06:32.549Z,5.80
2023-04-07T03:07:32.476Z,5.80
2023-04-07T03:08:32.483Z,5.80
2023-04-07T03:09:32.497Z,6.00
2023-04-07T03:10:32.503Z,5.70
2023-04-07T03:11:32.517Z,5.50
2023-04-07T03:12:32.506Z,6.10
2023-04-07T03:13:32.411Z,5.90
2023-04-07T03:14:32.431Z,5.70
2023-04-07T03:15:32.508Z,5.60
2023-04-07T03:16:32.440Z,5.50
2023-04-07T03:17:32.450Z,6.10
2023-04-07T03:18:32.417Z,5.30
2023-04-07T03:19:32.337Z,6.30
2023-04-07T03:20:32.374Z,5.50
2023-04-07T03:21:32.327Z,5.60
2023-04-07T03:22:32.410Z,5.90
2023-04-07T03:23:32.309Z,5.60
2023-04-07T03:24:32.332Z,5.60
2023-04-07T03:25:33.072Z,6.10
2023-04-07T03:26:32.360Z,5.10
2023-04-07T03:27:32.265Z,6.00
2023-04-07T03:28:32.257Z,5.60
2023-04-07T03:29:32.267Z,5.80
2023-04-07T03:30:32.299Z,6.30
2023-04-07T03:31:32.240Z,6.20
2023-04-07T03:32:32.304Z,6.30
2023-04-07T03:33:32.195Z,6.20
2023-04-07T03:34:32.206Z,6.20
2023-04-07T03:35:32.208Z,6.20
2023-04-07T03:36:32.193Z,5.80
2023-04-07T03:37:32.155Z,5.50
2023-04-07T03:38:32.155Z,6.50
2023-04-07T03:39:32.187Z,6.00
2023-04-07T03:40:32.136Z,7.00
2023-04-07T03:41:32.087Z,6.40
2023-04-07T03:42:32.138Z,6.50
2023-04-07T03:43:32.080Z,6.70
2023-04-07T03:44:32.098Z,6.80
2023-04-07T03:45:32.594Z,6.50
2023-04-07T03:46:32.086Z,6.60
2023-04-07T03:47:32.083Z,6.80
2023-04-07T03:48:32.079Z,6.80
2023-04-07T03:49:31.994Z,6.10
2023-04-07T03:50:32.036Z,6.40
2023-04-07T03:51:32.901Z,6.30
2023-04-07T03:52:32.062Z,6.60
2023-04-07T03:53:31.989Z,6.20
2023-04-07T03:54:32.021Z,6.60
2023-04-07T03:55:31.965Z,6.50
2023-04-07T03:56:31.944Z,6.90
2023-04-07T03:57:32.345Z,6.10
2023-04-07T03:58:31.939Z,6.20
2023-04-07T03:59:31.885Z,6.40
2023-04-07T04:00:31.931Z,6.90
2023-04-07T04:01:31.901Z,6.10
2023-04-07T04:02:32.018Z,7.40
2023-04-07T04:03:32.021Z,7.80
2023-04-07T04:04:31.962Z,7.10
2023-04-07T04:05:32.832Z,6.80
2023-04-07T04:06:31.859Z,6.70
2023-04-07T04:07:31.802Z,6.60
2023-04-07T04:08:31.850Z,6.90
2023-04-07T04:09:31.783Z,6.90
2023-04-07T04:10:31.809Z,6.90
2023-04-07T04:11:31.786Z,7.00
2023-04-07T04:12:32.013Z,6.90
2023-04-07T04:13:31.753Z,6.00
2023-04-07T04:14:31.829Z,6.60
2023-04-07T04:15:31.729Z,6.80
2023-04-07T04:16:31.802Z,6.90
2023-04-07T04:17:31.737Z,7.90
2023-04-07T04:18:31.768Z,7.70
2023-04-07T04:19:31.677Z,6.70
2023-04-07T04:20:32.077Z,7.10
2023-04-07T04:21:31.648Z,7.10
2023-04-07T04:22:31.656Z,7.10
2023-04-07T04:23:31.663Z,7.00
2023-04-07T04:24:31.632Z,6.70
2023-04-07T04:25:32.447Z,6.50
2023-04-07T04:26:31.627Z,6.50
2023-04-07T04:27:31.660Z,6.70
2023-04-07T04:28:31.608Z,6.90
2023-04-07T04:29:32.901Z,6.70
2023-04-07T04:30:31.620Z,6.70
2023-04-07T04:31:31.612Z,6.80
2023-04-07T04:32:31.571Z,6.90
2023-04-07T04:33:32.424Z,6.60
2023-04-07T04:34:31.576Z,6.70
2023-04-07T04:35:31.498Z,6.80
2023-04-07T04:36:31.532Z,7.70
2023-04-07T04:37:31.497Z,7.30
2023-04-07T04:38:31.474Z,7.00
2023-04-07T04:39:31.448Z,6.60
2023-04-07T04:40:31.490Z,7.70
2023-04-07T04:41:31.444Z,7.50
2023-04-07T04:42:31.436Z,7.20
2023-04-07T04:43:31.412Z,7.60
2023-04-07T04:44:31.446Z,7.40
2023-04-07T04:45:31.412Z,7.10
2023-04-07T04:46:32.238Z,7.00
2023-04-07T04:47:31.601Z,7.60
2023-04-07T04:48:31.467Z,7.20
2023-04-07T04:49:31.370Z,7.40
2023-04-07T04:50:31.355Z,7.10
2023-04-07T04:51:31.349Z,7.30
2023-04-07T04:52:31.331Z,7.20
2023-04-07T04:53:32.059Z,6.90
2023-04-07T04:54:31.324Z,7.20
2023-04-07T04:55:31.343Z,6.60
2023-04-07T04:56:31.276Z,6.50
2023-04-07T04:57:31.239Z,7.00
2023-04-07T04:58:31.256Z,6.60
2023-04-07T04:59:31.263Z,6.70
2023-04-07T05:00:31.266Z,6.60
2023-04-07T05:01:33.369Z,6.90
2023-04-07T05:02:31.461Z,6.50
2023-04-07T05:03:31.418Z,6.20
2023-04-07T05:04:31.331Z,6.70
2023-04-07T05:05:31.155Z,7.30
2023-04-07T05:06:31.174Z,6.80
2023-04-07T05:07:31.158Z,7.10
2023-04-07T05:08:31.134Z,6.90
2023-04-07T05:09:31.140Z,7.00
2023-04-07T05:10:31.116Z,7.30
2023-04-07T05:11:31.098Z,6.70
2023-04-07T05:12:31.392Z,6.70
2023-04-07T05:13:31.706Z,6.50
2023-04-07T05:14:31.066Z,6.80
2023-04-07T05:15:31.102Z,7.10
2023-04-07T05:16:31.102Z,7.00
2023-04-07T05:17:31.036Z,6.60
2023-04-07T05:18:31.021Z,6.90
2023-04-07T05:19:31.102Z,6.60
2023-04-07T05:20:31.004Z,6.70
2023-04-07T05:21:30.997Z,7.40
2023-04-07T05:22:31.086Z,7.20
2023-04-07T05:23:30.971Z,6.80
2023-04-07T05:24:31.031Z,7.60
2023-04-07T05:25:30.998Z,6.60
2023-04-07T05:26:30.939Z,6.50
2023-04-07T05:27:30.972Z,6.10
2023-04-07T05:28:30.961Z,5.50
2023-04-07T05:29:30.967Z,6.00
2023-04-07T05:30:30.911Z,6.10
2023-04-07T05:31:30.957Z,6.40
2023-04-07T05:32:30.932Z,6.30
2023-04-07T05:33:30.855Z,5.50
2023-04-07T05:34:30.843Z,6.40
2023-04-07T05:35:30.836Z,5.80
2023-04-07T05:36:30.894Z,5.80
2023-04-07T05:37:30.904Z,6.20
2023-04-07T05:38:30.855Z,5.40
2023-04-07T05:39:30.818Z,5.30
2023-04-07T05:40:30.843Z,5.40
2023-04-07T05:41:30.784Z,5.70
2023-04-07T05:42:30.795Z,5.70
2023-04-07T05:43:30.743Z,5.60
2023-04-07T05:44:30.773Z,5.80
2023-04-07T05:45:30.735Z,5.90
2023-04-07T05:46:30.810Z,5.30
2023-04-07T05:47:30.713Z,5.40
2023-04-07T05:48:31.543Z,5.70
2023-04-07T05:49:30.794Z,6.20
2023-04-07T05:50:30.695Z,5.70
2023-04-07T05:51:30.666Z,5.20
2023-04-07T05:52:30.674Z,5.00
2023-04-07T05:53:30.684Z,5.00
2023-04-07T05:54:30.683Z,5.10
2023-04-07T05:55:30.653Z,4.60
2023-04-07T05:56:30.695Z,4.70
2023-04-07T05:57:30.650Z,4.60
2023-04-07T05:58:30.654Z,4.70
2023-04-07T05:59:30.578Z,5.20
2023-04-07T06:00:30.602Z,4.60
2023-04-07T06:01:30.566Z,4.80
2023-04-07T06:02:30.647Z,5.00
2023-04-07T06:03:30.717Z,5.00
2023-04-07T06:04:30.557Z,5.30
2023-04-07T06:05:30.566Z,4.90
2023-04-07T06:06:30.656Z,5.40
2023-04-07T06:07:30.499Z,5.50
2023-04-07T06:08:30.615Z,5.00
2023-04-07T06:09:30.482Z,5.60
2023-04-07T06:10:30.456Z,5.70
2023-04-07T06:11:30.438Z,5.30
2023-04-07T06:12:30.440Z,5.50
2023-04-07T06:13:30.416Z,5.00
2023-04-07T06:14:30.474Z,4.30
2023-04-07T06:15:31.415Z,4.70
2023-04-07T06:16:30.463Z,5.10
2023-04-07T06:17:30.388Z,4.20
2023-04-07T06:18:30.421Z,4.70
2023-04-07T06:19:30.455Z,4.80
2023-04-07T06:20:30.386Z,4.70
2023-04-07T06:21:30.411Z,5.00
2023-04-07T06:22:30.281Z,5.30
2023-04-07T06:23:30.387Z,4.70
2023-04-07T06:24:30.296Z,4.70
2023-04-07T06:25:30.429Z,4.90
2023-04-07T06:26:30.220Z,4.10
2023-04-07T06:27:30.487Z,4.10
2023-04-07T06:28:30.349Z,4.10
2023-04-07T06:29:30.291Z,4.60
2023-04-07T06:30:30.228Z,4.50
2023-04-07T06:31:30.345Z,4.40
2023-04-07T06:32:30.199Z,4.50
2023-04-07T06:33:30.205Z,4.80
2023-04-07T06:34:30.184Z,5.00
2023-04-07T06:35:30.232Z,4.90
2023-04-07T06:36:30.140Z,5.30
2023-04-07T06:37:30.131Z,5.30
2023-04-07T06:38:30.170Z,5.40
2023-04-07T06:39:30.178Z,3.90
2023-04-07T06:40:31.002Z,4.30
2023-04-07T06:41:30.154Z,4.30
2023-04-07T06:42:30.059Z,5.20
2023-04-07T06:43:30.207Z,4.60
2023-04-07T06:44:30.057Z,3.50
2023-04-07T06:45:30.061Z,3.60
2023-04-07T06:46:30.060Z,4.10
2023-04-07T06:47:30.121Z,4.10
2023-04-07T06:48:30.310Z,4.30
2023-04-07T06:49:30.088Z,3.90
2023-04-07T06:50:30.013Z,4.10
2023-04-07T06:51:30.026Z,4.60
2023-04-07T06:52:29.998Z,4.00
2023-04-07T06:53:29.997Z,4.40
2023-04-07T06:54:30.071Z,4.50
2023-04-07T06:55:30.011Z,4.20
2023-04-07T06:56:29.920Z,4.30
2023-04-07T06:57:29.916Z,4.40
2023-04-07T06:58:29.871Z,4.20
2023-04-07T06:59:29.931Z,4.40
2023-04-07T07:00:30.041Z,4.60
2023-04-07T07:01:29.951Z,4.50
2023-04-07T07:02:30.026Z,4.60
2023-04-07T07:03:29.942Z,4.20
2023-04-07T07:04:29.956Z,4.60
2023-04-07T07:05:30.550Z,4.70
2023-04-07T07:06:29.829Z,4.20
2023-04-07T07:07:29.818Z,4.90
2023-04-07T07:08:29.837Z,5.00
2023-04-07T07:09:29.766Z,4.60
2023-04-07T07:10:29.813Z,4.60
2023-04-07T07:11:29.760Z,4.50
2023-04-07T07:12:29.764Z,4.90
2023-04-07T07:13:29.795Z,4.30
2023-04-07T07:14:29.763Z,4.40
2023-04-07T07:15:29.813Z,4.30
2023-04-07T07:16:30.485Z,4.20
2023-04-07T07:17:29.728Z,4.50
2023-04-07T07:18:31.523Z,4.30
2023-04-07T07:19:29.664Z,3.30
2023-04-07T07:20:29.653Z,3.80
2023-04-07T07:21:29.846Z,4.40
2023-04-07T07:22:29.614Z,3.90
2023-04-07T07:23:29.627Z,3.80
2023-04-07T07:24:29.592Z,4.30
2023-04-07T07:25:29.747Z,3.90
2023-04-07T07:26:29.597Z,3.60
2023-04-07T07:27:29.622Z,3.80
2023-04-07T07:28:29.544Z,4.20
2023-04-07T07:29:29.561Z,4.60
2023-04-07T07:30:30.287Z,4.70
2023-04-07T07:31:29.663Z,4.60
2023-04-07T07:32:29.584Z,4.20
2023-04-07T07:33:29.558Z,4.00
2023-04-07T07:34:29.460Z,3.50
2023-04-07T07:35:29.511Z,3.00
2023-04-07T07:36:29.442Z,3.60
2023-04-07T07:37:29.496Z,4.20
2023-04-07T07:38:29.427Z,3.80
2023-04-07T07:39:29.486Z,3.60
2023-04-07T07:40:29.410Z,3.30
2023-04-07T07:41:29.534Z,2.90
2023-04-07T07:42:29.542Z,3.00
2023-04-07T07:43:29.492Z,2.60
2023-04-07T07:44:31.964Z,3.00
2023-04-07T07:45:29.473Z,2.70
2023-04-07T07:46:29.383Z,3.30
2023-04-07T07:47:29.536Z,3.20
2023-04-07T07:48:29.399Z,2.80
2023-04-07T07:49:29.375Z,2.60
2023-04-07T07:50:29.307Z,2.50
2023-04-07T07:51:29.399Z,2.80
2023-04-07T07:52:29.378Z,2.60
2023-04-07T07:53:29.373Z,3.10
2023-04-07T07:54:29.303Z,2.70
2023-04-07T07:55:29.291Z,2.50
2023-04-07T07:56:29.348Z,2.90
2023-04-07T07:57:29.294Z,2.90
2023-04-07T07:58:29.244Z,2.90
2023-04-07T07:59:29.226Z,2.80
2023-04-07T08:00:29.246Z,2.60
2023-04-07T08:01:29.252Z,2.20
2023-04-07T08:02:29.320Z,2.80
2023-04-07T08:03:29.362Z,2.60
2023-04-07T08:04:29.181Z,2.40
2023-04-07T08:05:29.195Z,2.30
2023-04-07T08:06:29.099Z,2.40
2023-04-07T08:07:29.239Z,2.30
2023-04-07T08:08:29.120Z,1.90
2023-04-07T08:09:29.166Z,2.20
2023-04-07T08:10:29.446Z,2.40
2023-04-07T08:11:29.129Z,2.40
2023-04-07T08:12:29.066Z,2.30
2023-04-07T08:13:29.072Z,2.10
2023-04-07T08:14:29.015Z,2.20
2023-04-07T08:15:29.059Z,2.10
2023-04-07T08:16:29.023Z,2.40
2023-04-07T08:17:29.035Z,1.90
2023-04-07T08:18:28.961Z,2.20
2023-04-07T08:19:29.015Z,2.20
2023-04-07T08:20:28.980Z,2.20
2023-04-07T08:21:28.982Z,2.10
2023-04-07T08:22:28.922Z,2.00
2023-04-07T08:23:28.944Z,1.80
2023-04-07T08:24:28.939Z,2.20
2023-04-07T08:25:28.912Z,2.40
2023-04-07T08:26:28.871Z,2.20
2023-04-07T08:27:28.895Z,2.10
2023-04-07T08:28:28.918Z,2.20
2023-04-07T08:29:30.619Z,2.00
2023-04-07T08:30:28.849Z,2.10
2023-04-07T08:31:29.511Z,2.00
2023-04-07T08:32:28.874Z,2.00
2023-04-07T08:33:28.821Z,2.10
2023-04-07T08:34:28.816Z,1.90
2023-04-07T08:35:28.853Z,2.00
2023-04-07T08:36:28.793Z,2.30
2023-04-07T08:37:28.761Z,1.90
2023-04-07T08:38:28.776Z,2.10
2023-04-07T08:39:28.759Z,2.10
2023-04-07T08:40:28.887Z,1.80
2023-04-07T08:41:28.824Z,1.80
2023-04-07T08:42:28.706Z,1.70
2023-04-07T08:43:28.734Z,1.80
2023-04-07T08:44:28.693Z,1.80
2023-04-07T08:45:28.713Z,1.70
2023-04-07T08:46:28.702Z,1.70
2023-04-07T08:47:28.912Z,1.80
2023-04-07T08:48:28.695Z,1.50
2023-04-07T08:49:28.636Z,1.70
2023-04-07T08:50:28.680Z,1.50
2023-04-07T08:51:28.697Z,1.60
2023-04-07T08:52:28.605Z,1.50
2023-04-07T08:53:28.690Z,1.50
2023-04-07T08:54:28.566Z,1.50
2023-04-07T08:55:28.597Z,1.70
2023-04-07T08:56:28.588Z,1.30
2023-04-07T08:57:28.586Z,1.50
2023-04-07T08:58:28.537Z,2.00
2023-04-07T08:59:28.656Z,1.70
2023-04-07T09:00:28.532Z,1.80
2023-04-07T09:01:28.590Z,1.90
2023-04-07T09:02:29.053Z,1.80
2023-04-07T09:03:28.572Z,1.90
2023-04-07T09:04:28.459Z,1.60
2023-04-07T09:05:28.595Z,1.40
2023-04-07T09:06:28.437Z,1.30
2023-04-07T09:07:28.444Z,1.40
2023-04-07T09:08:28.399Z,1.70
2023-04-07T09:09:28.439Z,1.60
2023-04-07T09:10:28.377Z,1.70
2023-04-07T09:11:28.418Z,2.10
2023-04-07T09:12:28.412Z,2.20
2023-04-07T09:13:28.445Z,2.60
2023-04-07T09:14:28.377Z,2.70
2023-04-07T09:15:28.359Z,2.60
2023-04-07T09:16:28.360Z,2.90
2023-04-07T09:17:28.372Z,2.70
2023-04-07T09:18:29.133Z,2.20
2023-04-07T09:19:28.308Z,2.50
2023-04-07T09:20:28.312Z,2.50
2023-04-07T09:21:28.983Z,2.40
2023-04-07T09:22:28.575Z,1.80
2023-04-07T09:23:28.577Z,1.90
2023-04-07T09:24:28.234Z,2.20
2023-04-07T09:25:28.335Z,1.90
2023-04-07T09:26:28.257Z,2.00
2023-04-07T09:27:28.208Z,2.10
2023-04-07T09:28:28.181Z,2.00
2023-04-07T09:29:28.243Z,1.80
2023-04-07T09:30:28.174Z,2.00
2023-04-07T09:31:28.193Z,2.20
2023-04-07T09:32:28.178Z,2.10
2023-04-07T09:33:28.207Z,2.00
2023-04-07T09:34:28.125Z,2.10
2023-04-07T09:35:28.157Z,2.10
2023-04-07T09:36:28.090Z,1.90
2023-04-07T09:37:28.198Z,2.10
2023-04-07T09:38:28.075Z,2.00
2023-04-07T09:39:28.076Z,2.10
2023-04-07T09:40:28.058Z,1.70
2023-04-07T09:41:28.116Z,1.80
2023-04-07T09:42:28.287Z,1.70
2023-04-07T09:43:28.048Z,1.70
2023-04-07T09:44:28.012Z,1.90
2023-04-07T09:45:34.626Z,1.50
2023-04-07T09:46:29.051Z,1.70
2023-04-07T09:47:28.001Z,1.70
2023-04-07T09:48:28.025Z,1.60
2023-04-07T09:49:27.963Z,1.70
2023-04-07T09:50:27.920Z,1.70
2023-04-07T09:51:27.947Z,1.80
2023-04-07T09:52:27.908Z,1.90
2023-04-07T09:53:27.916Z,1.90
2023-04-07T09:54:27.917Z,2.20
2023-04-07T09:55:27.906Z,2.20
2023-04-07T09:56:27.863Z,2.10
2023-04-07T09:57:27.913Z,1.60
2023-04-07T09:58:27.850Z,1.50
2023-04-07T09:59:27.857Z,1.30
2023-04-07T10:00:27.913Z,2.10
2023-04-07T10:01:27.932Z,1.60
2023-04-07T10:02:28.707Z,1.80
2023-04-07T10:03:27.943Z,2.30
2023-04-07T10:04:27.837Z,1.60
2023-04-07T10:05:27.800Z,1.60
2023-04-07T10:06:27.824Z,1.30
2023-04-07T10:07:27.788Z,1.30
2023-04-07T10:08:27.760Z,1.20
2023-04-07T10:09:27.852Z,1.40
2023-04-07T10:10:27.715Z,1.30
2023-04-07T10:11:27.734Z,1.60
2023-04-07T10:12:27.679Z,1.50
2023-04-07T10:13:27.698Z,1.30
2023-04-07T10:14:27.791Z,1.60
2023-04-07T10:15:27.930Z,1.30
2023-04-07T10:16:28.686Z,1.40
2023-04-07T10:17:27.958Z,1.20
2023-04-07T10:18:27.623Z,1.10
2023-04-07T10:19:27.629Z,1.10
2023-04-07T10:20:27.653Z,1.00
2023-04-07T10:21:27.628Z,1.10
2023-04-07T10:22:27.604Z,1.20
2023-04-07T10:23:28.408Z,1.20
2023-04-07T10:24:28.485Z,1.10
2023-04-07T10:25:28.646Z,1.30
2023-04-07T10:26:27.697Z,1.10
2023-04-07T10:27:27.832Z,0.90
2023-04-07T10:28:27.573Z,1.30
2023-04-07T10:29:27.552Z,1.20
2023-04-07T10:30:27.979Z,1.30
2023-04-07T10:31:27.656Z,1.30
2023-04-07T10:32:27.611Z,1.50
2023-04-07T10:33:27.468Z,1.00
2023-04-07T10:34:27.794Z,1.10
2023-04-07T10:35:28.313Z,1.10
2023-04-07T10:36:27.968Z,0.90
2023-04-07T10:37:27.622Z,1.00
2023-04-07T10:38:27.537Z,0.90
2023-04-07T10:39:27.471Z,1.30
2023-04-07T10:40:27.594Z,1.20
2023-04-07T10:41:27.397Z,1.20
2023-04-07T10:42:27.563Z,1.00
2023-04-07T10:43:27.751Z,0.90
2023-04-07T10:44:27.765Z,1.00
2023-04-07T10:45:28.037Z,0.90
2023-04-07T10:46:27.513Z,0.80
2023-04-07T10:47:27.364Z,0.70
2023-04-07T10:48:27.423Z,0.70
2023-04-07T10:49:27.344Z,0.80
2023-04-07T10:50:27.731Z,0.70
2023-04-07T10:51:27.391Z,0.80
2023-04-07T10:52:30.216Z,0.90
2023-04-07T10:53:28.951Z,0.80
2023-04-07T10:54:29.213Z,0.80
2023-04-07T10:55:28.054Z,0.60
2023-04-07T10:56:27.357Z,0.70
2023-04-07T10:57:27.469Z,0.60
2023-04-07T10:58:27.587Z,0.70
2023-04-07T10:59:27.200Z,0.90
2023-04-07T11:00:27.232Z,0.60
2023-04-07T11:01:27.271Z,0.80
2023-04-07T11:02:27.414Z,0.80
2023-04-07T11:03:27.226Z,0.70
2023-04-07T11:04:27.259Z,1.00
2023-04-07T11:05:27.133Z,0.90
2023-04-07T11:06:27.878Z,0.80
2023-04-07T11:07:27.176Z,0.80
2023-04-07T11:08:27.143Z,0.80
2023-04-07T11:09:27.174Z,0.80
2023-04-07T11:10:27.202Z,0.90
2023-04-07T11:11:27.128Z,0.90
2023-04-07T11:12:27.116Z,0.80
2023-04-07T11:13:27.016Z,0.80
2023-04-07T11:14:27.009Z,0.70
2023-04-07T11:15:27.059Z,0.80
2023-04-07T11:16:27.013Z,0.70
2023-04-07T11:17:27.044Z,1.00
2023-04-07T11:18:26.958Z,1.20
2023-04-07T11:19:26.938Z,1.10
2023-04-07T11:20:27.014Z,1.10
2023-04-07T11:21:26.934Z,1.00
2023-04-07T11:22:30.258Z,0.90
2023-04-07T11:23:26.980Z,1.20
2023-04-07T11:24:26.913Z,1.00
2023-04-07T11:25:27.822Z,1.00
2023-04-07T11:26:26.880Z,0.80
2023-04-07T11:27:27.024Z,0.90
2023-04-07T11:28:26.866Z,0.90
2023-04-07T11:29:28.037Z,1.00
2023-04-07T11:30:27.063Z,0.80
2023-04-07T11:31:26.863Z,0.70
2023-04-07T11:32:27.017Z,0.90
2023-04-07T11:33:26.831Z,0.90
2023-04-07T11:34:26.804Z,1.00
2023-04-07T11:35:26.746Z,0.70
2023-04-07T11:36:26.771Z,0.80
2023-04-07T11:37:26.870Z,0.70
2023-04-07T11:38:27.035Z,0.70
2023-04-07T11:39:26.707Z,0.60
2023-04-07T11:40:26.796Z,0.80
2023-04-07T11:41:26.691Z,0.90
2023-04-07T11:42:27.521Z,0.80
2023-04-07T11:43:27.387Z,0.70
2023-04-07T11:44:27.579Z,0.80
2023-04-07T11:45:27.560Z,0.80
2023-04-07T11:46:27.507Z,1.20
2023-04-07T11:47:26.734Z,0.70
2023-04-07T11:48:26.645Z,1.00
2023-04-07T11:49:26.643Z,1.00
2023-04-07T11:50:26.665Z,0.70
2023-04-07T11:51:26.659Z,1.10
2023-04-07T11:52:26.590Z,1.40
2023-04-07T11:53:26.576Z,0.90
2023-04-07T11:54:26.732Z,1.20
2023-04-07T11:55:26.679Z,1.10
2023-04-07T11:56:26.589Z,1.30
2023-04-07T11:57:26.585Z,1.30
2023-04-07T11:58:26.568Z,1.30
2023-04-07T11:59:26.540Z,1.00
2023-04-07T12:00:26.537Z,0.80
2023-04-07T12:01:26.479Z,0.80
2023-04-07T12:02:26.716Z,0.80
2023-04-07T12:03:26.555Z,0.70
2023-04-07T12:04:26.630Z,0.70
2023-04-07T12:05:26.605Z,0.70
2023-04-07T12:06:26.533Z,0.90
2023-04-07T12:07:27.958Z,0.60
2023-04-07T12:08:26.491Z,0.50
2023-04-07T12:09:26.469Z,0.50
2023-04-07T12:10:26.430Z,0.50
2023-04-07T12:11:26.508Z,0.70
2023-04-07T12:12:26.446Z,0.80
2023-04-07T12:13:26.345Z,0.60
2023-04-07T12:14:26.440Z,0.60
2023-04-07T12:15:26.417Z,0.90
2023-04-07T12:16:26.443Z,0.80
2023-04-07T12:17:26.430Z,0.40
2023-04-07T12:18:26.300Z,0.50
2023-04-07T12:19:26.396Z,0.70
2023-04-07T12:20:26.375Z,0.40
2023-04-07T12:21:26.363Z,0.50
2023-04-07T12:22:26.279Z,0.40
2023-04-07T12:23:26.257Z,0.30
2023-04-07T12:24:26.247Z,0.30
2023-04-07T12:25:26.220Z,0.30
2023-04-07T12:26:26.378Z,0.30
2023-04-07T12:27:39.626Z,0.40
2023-04-07T12:28:27.204Z,0.40
2023-04-07T12:29:26.251Z,0.20
2023-04-07T12:30:26.337Z,0.20
2023-04-07T12:31:26.246Z,0.30
2023-04-07T12:32:26.240Z,0.30
2023-04-07T12:33:26.166Z,0.30
2023-04-07T12:34:26.101Z,0.20
2023-04-07T12:35:26.168Z,0.30
2023-04-07T12:36:26.247Z,0.20
2023-04-07T12:37:26.078Z,0.20
2023-04-07T12:38:26.186Z,0.50
2023-04-07T12:39:26.049Z,0.20
2023-04-07T12:40:26.185Z,0.40
2023-04-07T12:41:26.012Z,0.40
2023-04-07T12:42:26.304Z,0.50
2023-04-07T12:43:26.050Z,0.50
2023-04-07T12:44:26.162Z,0.40
2023-04-07T12:45:26.038Z,0.30
2023-04-07T12:46:26.812Z,0.40
2023-04-07T12:47:26.045Z,0.50
2023-04-07T12:48:25.995Z,0.40
2023-04-07T12:49:26.064Z,0.40
2023-04-07T12:50:26.055Z,0.60
2023-04-07T12:51:25.964Z,0.50
2023-04-07T12:52:25.996Z,0.40
2023-04-07T12:53:25.863Z,0.60
2023-04-07T12:54:25.883Z,0.30
2023-04-07T12:55:25.938Z,0.40
2023-04-07T12:56:26.233Z,0.50
2023-04-07T12:57:25.862Z,0.50
2023-04-07T12:58:25.954Z,0.40
2023-04-07T12:59:25.889Z,0.40
2023-04-07T13:00:25.851Z,0.40
2023-04-07T13:01:25.875Z,0.50
2023-04-07T13:02:26.000Z,0.60
2023-04-07T13:03:25.963Z,0.50
2023-04-07T13:04:26.149Z,0.60
2023-04-07T13:05:26.366Z,0.50
2023-04-07T13:06:25.948Z,0.60
2023-04-07T13:07:25.795Z,0.70
2023-04-07T13:08:25.792Z,0.30
2023-04-07T13:09:26.161Z,0.30
2023-04-07T13:10:25.816Z,0.50
2023-04-07T13:11:25.759Z,0.50
2023-04-07T13:12:25.850Z,0.40
2023-04-07T13:13:25.730Z,0.60
2023-04-07T13:14:25.667Z,0.30
2023-04-07T13:15:25.925Z,0.70
2023-04-07T13:16:25.724Z,0.30
2023-04-07T13:17:25.722Z,0.40
2023-04-07T13:18:25.657Z,0.20